Time;durP1;ratioP1;P1;durP2;ratioP2;P2;SDS_P1;SDS_P2;PMS_P1;PMS_P2;Temp;Humidity;BMP_temperature;BMP_pressure;BME280_temperature;BME280_humidity;BME280_pressure;Samples;Min_cycle;Max_cycle;Signal;HPM_P1;HPM_P2
2022/09/03 00:02:34;;;;;;;8.15;4.07;;;18.80;42.10;;;;;;5071372;28;20164;-43
2022/09/03 00:05:14;;;;;;;4.95;4.03;;;18.80;42.30;;;;;;5071166;28;20562;-43
2022/09/03 00:07:58;;;;;;;5.05;4.07;;;18.80;42.50;;;;;;5071046;28;20172;-43
2022/09/03 00:10:30;;;;;;;5.35;4.70;;;18.70;42.60;;;;;;5074830;28;20203;-44
2022/09/03 00:13:01;;;;;;;6.47;4.40;;;18.80;42.60;;;;;;5074834;28;20196;-41
2022/09/03 00:15:31;;;;;;;5.07;4.47;;;18.80;42.50;;;;;;5074667;28;20271;-42
2022/09/03 00:18:06;;;;;;;4.40;3.95;;;18.80;42.80;;;;;;5074486;28;20544;-42
2022/09/03 00:20:51;;;;;;;4.15;3.75;;;18.80;42.90;;;;;;5074834;28;20194;-42
2022/09/03 00:23:27;;;;;;;6.72;3.67;;;18.80;43.10;;;;;;5074623;28;20164;-42
2022/09/03 00:26:11;;;;;;;4.18;3.75;;;18.70;43.10;;;;;;5074318;28;20198;-43
2022/09/03 00:29:12;;;;;;;6.75;3.92;;;18.70;43.10;;;;;;5074478;28;20692;-43
2022/09/03 00:31:55;;;;;;;4.85;3.25;;;18.70;42.90;;;;;;5069901;28;20184;-43
2022/09/03 00:34:44;;;;;;;4.40;2.90;;;18.70;42.80;;;;;;5074337;28;20183;-42
2022/09/03 00:37:10;;;;;;;4.25;2.63;;;18.60;42.70;;;;;;5074125;28;20195;-43
2022/09/03 00:39:37;;;;;;;3.45;2.95;;;18.60;42.80;;;;;;5074272;28;20189;-42
2022/09/03 00:42:22;;;;;;;4.50;3.85;;;18.60;42.80;;;;;;5074556;28;20241;-43
2022/09/03 00:44:54;;;;;;;2.92;2.00;;;18.60;42.60;;;;;;5074210;28;20252;-43
2022/09/03 00:47:35;;;;;;;3.95;2.90;;;18.50;42.40;;;;;;5074168;28;20266;-42
2022/09/03 00:50:28;;;;;;;3.05;2.42;;;18.50;42.40;;;;;;5074129;28;20168;-42
2022/09/03 00:53:51;;;;;;;4.45;2.80;;;18.40;42.30;;;;;;5074337;28;20168;-42
2022/09/03 00:56:34;;;;;;;6.38;2.40;;;18.40;42.30;;;;;;4972787;28;20707;-43
2022/09/03 00:59:18;;;;;;;3.17;2.70;;;18.30;42.30;;;;;;4972920;28;20227;-43
2022/09/03 01:01:55;;;;;;;8.05;2.95;;;18.20;42.30;;;;;;4972864;28;20186;-43
2022/09/03 01:04:33;;;;;;;3.97;2.35;;;18.20;42.60;;;;;;4972663;28;20588;-43
2022/09/03 01:07:29;;;;;;;8.90;2.70;;;18.10;42.60;;;;;;4972582;28;20186;-42
2022/09/03 01:10:03;;;;;;;3.40;2.33;;;18.10;42.60;;;;;;5030656;22;20232;-46
2022/09/03 01:12:50;;;;;;;8.35;3.15;;;18.10;42.60;;;;;;5072186;28;20176;-43
2022/09/03 01:15:35;;;;;;;3.22;2.75;;;18.10;42.50;;;;;;5072643;28;20287;-42
2022/09/03 01:18:07;;;;;;;3.80;3.13;;;18.00;42.50;;;;;;5072630;28;20517;-42
2022/09/03 01:20:52;;;;;;;3.67;2.58;;;18.00;42.40;;;;;;5071746;28;20288;-42
2022/09/03 01:24:02;;;;;;;3.72;1.90;;;17.90;42.70;;;;;;5072515;28;20261;-44
2022/09/03 01:27:14;;;;;;;3.70;2.58;;;17.90;42.60;;;;;;4971295;28;20208;-48
2022/09/03 01:29:59;;;;;;;4.57;2.88;;;17.80;42.80;;;;;;4984174;28;20208;-43
2022/09/03 01:32:57;;;;;;;3.17;2.47;;;17.70;42.90;;;;;;5072777;28;20555;-43
2022/09/03 01:35:36;;;;;;;3.00;2.30;;;17.70;43.10;;;;;;5072277;28;20181;-43
2022/09/03 01:38:05;;;;;;;3.75;2.08;;;17.60;43.10;;;;;;5072749;28;20524;-43
2022/09/03 01:42:12;;;;;;;5.45;2.30;;;17.60;43.00;;;;;;5072378;28;20227;-43
2022/09/03 01:44:11;;;;;;;3.45;2.70;;;17.60;43.00;;;;;;5072022;28;20659;-44
2022/09/03 01:46:41;;;;;;;3.05;2.67;;;17.50;43.10;;;;;;5027279;28;20185;-44
2022/09/03 01:49:27;;;;;;;2.95;2.28;;;17.40;43.20;;;;;;5072224;28;20184;-42
2022/09/03 01:52:10;;;;;;;4.10;2.50;;;17.40;43.20;;;;;;5072508;28;20184;-44
2022/09/03 01:55:00;;;;;;;3.85;2.33;;;17.40;43.30;;;;;;5072534;28;20157;-42
2022/09/03 01:57:54;;;;;;;3.08;2.35;;;17.40;43.60;;;;;;5072019;28;20632;-42
2022/09/03 02:00:21;;;;;;;5.07;2.00;;;17.30;43.40;;;;;;5072205;28;20227;-44
2022/09/03 02:02:51;;;;;;;2.67;2.08;;;17.30;43.40;;;;;;5071904;28;20172;-43
2022/09/03 02:05:22;;;;;;;3.75;2.20;;;17.30;43.40;;;;;;5072043;28;20169;-43
2022/09/03 02:08:02;;;;;;;2.50;2.20;;;17.20;43.30;;;;;;5071677;28;20207;-42
2022/09/03 02:10:30;;;;;;;4.20;2.27;;;17.20;43.40;;;;;;5030103;28;1206388;-42
2022/09/03 02:13:24;;;;;;;4.18;2.50;;;17.20;43.40;;;;;;5072821;28;20259;-42
2022/09/03 02:15:52;;;;;;;3.50;2.83;;;17.10;43.50;;;;;;5062563;28;20212;-43
2022/09/03 02:18:49;;;;;;;3.42;2.75;;;17.10;44.30;;;;;;5072463;28;20173;-42
2022/09/03 02:21:19;;;;;;;3.25;2.92;;;17.00;43.60;;;;;;5072334;28;20204;-43
2022/09/03 02:23:46;;;;;;;6.97;3.40;;;17.00;43.70;;;;;;5072573;28;20260;-44
2022/09/03 02:26:17;;;;;;;4.22;3.00;;;16.90;43.70;;;;;;5072388;28;20188;-42
2022/09/03 02:28:43;;;;;;;3.38;3.05;;;16.90;43.70;;;;;;5072282;28;20280;-42
2022/09/03 02:31:09;;;;;;;3.90;2.50;;;16.90;43.70;;;;;;5072160;28;20598;-44
2022/09/03 02:33:42;;;;;;;5.07;2.80;;;16.80;43.40;;;;;;5071681;28;20175;-43
2022/09/03 02:36:10;;;;;;;4.03;2.60;;;16.80;43.60;;;;;;5071915;28;20652;-43
2022/09/03 02:38:37;;;;;;;8.57;2.50;;;16.80;43.60;;;;;;5072169;28;20168;-43
2022/09/03 02:41:03;;;;;;;3.90;2.50;;;16.80;43.70;;;;;;5072110;28;20197;-42
2022/09/03 02:43:50;;;;;;;3.10;2.45;;;16.80;43.70;;;;;;5072135;28;20172;-42
2022/09/03 02:46:28;;;;;;;4.28;2.85;;;16.80;43.60;;;;;;5053905;28;20180;-43
2022/09/03 02:48:54;;;;;;;3.40;3.00;;;16.70;43.80;;;;;;5072156;28;20195;-43
2022/09/03 02:51:21;;;;;;;6.57;2.67;;;16.60;43.70;;;;;;5072226;28;20168;-43
2022/09/03 02:53:46;;;;;;;5.65;2.88;;;16.60;43.90;;;;;;5072345;28;20196;-42
2022/09/03 02:56:12;;;;;;;4.57;2.53;;;16.60;43.90;;;;;;5071991;28;20678;-41
2022/09/03 02:58:38;;;;;;;4.53;3.23;;;16.50;44.00;;;;;;5071950;28;20164;-43
2022/09/03 03:01:05;;;;;;;3.83;3.03;;;16.60;44.00;;;;;;5072071;28;20453;-42
2022/09/03 03:03:30;;;;;;;3.20;2.50;;;16.60;44.00;;;;;;5071998;28;20207;-43
2022/09/03 03:05:59;;;;;;;3.50;2.90;;;16.60;44.00;;;;;;5072007;28;20564;-42
2022/09/03 03:08:27;;;;;;;3.03;2.42;;;16.50;44.30;;;;;;5072125;28;20265;-42
2022/09/03 03:10:58;;;;;;;3.70;2.72;;;16.50;44.30;;;;;;5071876;28;20251;-42
2022/09/03 03:13:25;;;;;;;3.95;3.05;;;16.50;44.40;;;;;;5071919;28;20180;-42
2022/09/03 03:15:50;;;;;;;2.92;2.35;;;16.40;44.30;;;;;;5071579;28;20165;-43
2022/09/03 03:18:16;;;;;;;3.00;2.70;;;16.40;44.30;;;;;;5071884;28;20536;-44
2022/09/03 03:20:43;;;;;;;3.10;2.90;;;16.50;44.30;;;;;;5071593;28;20453;-44
2022/09/03 03:23:09;;;;;;;5.68;2.92;;;16.40;44.30;;;;;;5071669;28;20179;-42
2022/09/03 03:25:37;;;;;;;2.10;1.90;;;16.40;44.30;;;;;;5071569;28;20536;-44
2022/09/03 03:28:04;;;;;;;3.85;3.00;;;16.40;44.30;;;;;;5071665;28;20161;-43
2022/09/03 03:30:30;;;;;;;2.80;2.55;;;16.40;44.40;;;;;;5071701;28;20204;-43
2022/09/03 03:32:57;;;;;;;2.85;2.10;;;16.40;44.50;;;;;;5071719;28;20184;-43
2022/09/03 03:35:23;;;;;;;3.13;2.80;;;16.30;44.50;;;;;;5071859;28;20264;-43
2022/09/03 03:37:49;;;;;;;3.80;3.30;;;16.30;44.60;;;;;;5071680;28;20172;-43
2022/09/03 03:40:15;;;;;;;2.90;2.53;;;16.20;44.50;;;;;;5071400;28;20201;-43
2022/09/03 03:42:42;;;;;;;3.78;2.60;;;16.20;44.40;;;;;;5071466;28;20410;-43
2022/09/03 03:45:09;;;;;;;5.10;2.75;;;16.20;44.80;;;;;;5075203;28;20181;-42
2022/09/03 03:47:35;;;;;;;4.38;2.75;;;16.20;44.60;;;;;;5075332;28;20173;-42
2022/09/03 03:50:02;;;;;;;3.20;2.90;;;16.20;44.50;;;;;;5075181;28;20201;-44
2022/09/03 03:52:28;;;;;;;4.25;3.25;;;16.20;44.50;;;;;;5075172;28;20311;-42
2022/09/03 03:54:55;;;;;;;4.60;2.80;;;16.20;44.60;;;;;;5075401;28;20268;-44
2022/09/03 03:57:22;;;;;;;2.92;2.58;;;16.20;44.40;;;;;;5075174;28;20183;-42
2022/09/03 03:59:48;;;;;;;4.43;3.22;;;16.20;44.30;;;;;;5074907;28;20291;-42
2022/09/03 04:02:15;;;;;;;4.47;3.28;;;16.20;44.40;;;;;;5074981;28;20226;-43
2022/09/03 04:04:41;;;;;;;3.05;2.75;;;16.20;44.40;;;;;;5075208;28;20186;-43
2022/09/03 04:07:07;;;;;;;3.20;2.90;;;16.20;44.30;;;;;;5074991;28;20582;-44
2022/09/03 04:09:33;;;;;;;3.70;2.90;;;16.20;44.50;;;;;;5074830;28;20832;-42
2022/09/03 04:11:59;;;;;;;3.03;2.53;;;16.10;44.60;;;;;;5074799;28;21111;-43
2022/09/03 04:14:26;;;;;;;5.00;2.80;;;16.10;44.60;;;;;;5074855;28;20173;-42
2022/09/03 04:16:53;;;;;;;3.20;2.40;;;16.00;44.60;;;;;;5074813;28;20172;-43
2022/09/03 04:19:19;;;;;;;3.35;3.05;;;16.00;44.50;;;;;;5074658;28;20206;-43
2022/09/03 04:21:44;;;;;;;2.70;2.50;;;16.00;44.60;;;;;;5075017;28;20180;-43
2022/09/03 04:24:10;;;;;;;3.00;2.10;;;16.00;44.90;;;;;;5074683;28;20259;-44
2022/09/03 04:26:36;;;;;;;3.40;2.83;;;16.00;44.60;;;;;;5074427;28;20187;-43
2022/09/03 04:29:07;;;;;;;4.50;2.63;;;16.00;44.50;;;;;;5074715;28;20415;-43
2022/09/03 04:31:34;;;;;;;3.50;3.20;;;16.00;44.50;;;;;;5074669;28;20180;-43
2022/09/03 04:34:00;;;;;;;3.10;2.50;;;15.90;44.70;;;;;;5074497;28;20172;-43
2022/09/03 04:36:28;;;;;;;2.35;2.10;;;16.00;44.80;;;;;;5074117;28;20180;-43
2022/09/03 04:38:57;;;;;;;2.78;2.05;;;15.90;44.90;;;;;;5074136;28;20196;-45
2022/09/03 04:41:26;;;;;;;3.20;2.38;;;15.90;44.90;;;;;;5074229;28;20335;-42
2022/09/03 04:43:56;;;;;;;4.07;2.85;;;15.80;44.90;;;;;;5074282;28;20169;-42
2022/09/03 04:46:25;;;;;;;3.13;2.70;;;15.90;45.10;;;;;;5074025;28;20648;-42
2022/09/03 04:48:52;;;;;;;3.20;2.78;;;15.90;45.10;;;;;;5074125;28;20184;-43
2022/09/03 04:51:22;;;;;;;3.55;3.10;;;15.80;45.00;;;;;;5073981;28;20250;-47
2022/09/03 04:53:55;;;;;;;4.95;3.15;;;15.80;44.90;;;;;;5074065;28;20231;-45
2022/09/03 04:56:26;;;;;;;4.00;3.00;;;15.80;44.90;;;;;;5072923;28;20176;-42
2022/09/03 04:58:57;;;;;;;6.97;3.40;;;15.70;45.00;;;;;;5073867;28;20192;-42
2022/09/03 05:01:25;;;;;;;3.17;2.88;;;15.70;45.20;;;;;;5073797;28;20231;-43
2022/09/03 05:03:51;;;;;;;4.75;2.90;;;15.70;45.30;;;;;;5073840;28;20635;-43
2022/09/03 05:06:17;;;;;;;6.20;3.47;;;15.80;45.40;;;;;;5073900;28;20267;-47
2022/09/03 05:08:47;;;;;;;4.22;2.67;;;15.80;45.30;;;;;;5073805;28;20193;-46
2022/09/03 05:11:14;;;;;;;7.35;2.90;;;15.90;45.30;;;;;;5073863;28;20184;-43
2022/09/03 05:13:40;;;;;;;2.90;2.35;;;15.90;45.20;;;;;;5073766;28;20177;-45
2022/09/03 05:16:08;;;;;;;3.55;3.17;;;15.90;45.30;;;;;;5073362;28;20183;-45
2022/09/03 05:18:35;;;;;;;5.30;2.33;;;16.00;45.40;;;;;;5073516;28;20173;-45
2022/09/03 05:21:09;;;;;;;7.60;3.67;;;16.00;45.50;;;;;;5073721;28;20227;-45
2022/09/03 05:23:39;;;;;;;7.13;2.70;;;16.00;45.70;;;;;;5073594;28;20184;-47
2022/09/03 05:26:08;;;;;;;3.38;2.63;;;16.10;45.80;;;;;;5073236;28;20681;-43
2022/09/03 05:28:36;;;;;;;3.03;2.20;;;16.10;45.80;;;;;;5073581;28;20180;-43
2022/09/03 05:31:07;;;;;;;3.53;3.22;;;16.20;45.90;;;;;;5073426;28;20230;-43
2022/09/03 05:33:39;;;;;;;3.20;2.90;;;16.20;45.90;;;;;;5073516;28;20183;-43
2022/09/03 05:36:07;;;;;;;2.92;2.60;;;16.30;45.80;;;;;;5073300;28;20213;-43
2022/09/03 05:38:33;;;;;;;2.60;2.35;;;16.40;45.60;;;;;;5073126;28;20664;-43
2022/09/03 05:41:07;;;;;;;4.88;2.65;;;16.50;45.70;;;;;;5073277;28;20211;-44
2022/09/03 05:43:33;;;;;;;3.88;2.60;;;16.60;45.60;;;;;;5073243;28;20183;-43
2022/09/03 05:46:01;;;;;;;2.75;2.20;;;16.70;45.70;;;;;;5073018;28;20180;-44
2022/09/03 05:48:32;;;;;;;5.53;2.72;;;16.80;45.00;;;;;;5072845;28;20176;-43
2022/09/03 05:51:08;;;;;;;3.50;2.13;;;16.80;44.30;;;;;;5073028;28;20180;-43
2022/09/03 05:53:36;;;;;;;3.15;2.15;;;16.80;44.00;;;;;;5072994;28;20176;-44
2022/09/03 05:56:05;;;;;;;5.40;3.85;;;16.80;43.90;;;;;;5072496;28;20184;-44
2022/09/03 05:58:33;;;;;;;3.50;2.92;;;16.90;44.10;;;;;;5072848;28;20183;-43
2022/09/03 06:00:59;;;;;;;3.13;2.78;;;17.00;44.30;;;;;;5072889;28;20204;-43
2022/09/03 06:03:26;;;;;;;3.22;1.95;;;17.20;44.50;;;;;;5072686;28;20208;-43
2022/09/03 06:05:53;;;;;;;2.35;2.15;;;17.30;44.50;;;;;;5072214;28;20226;-45
2022/09/03 06:08:20;;;;;;;2.13;1.85;;;17.30;44.10;;;;;;5072700;28;20172;-43
2022/09/03 06:10:46;;;;;;;3.85;1.90;;;17.40;44.10;;;;;;5072381;28;20196;-44
2022/09/03 06:13:12;;;;;;;2.92;2.63;;;17.50;44.20;;;;;;5072375;28;20230;-45
2022/09/03 06:15:38;;;;;;;3.70;1.97;;;17.50;43.10;;;;;;5072244;28;20184;-44
2022/09/03 06:18:04;;;;;;;2.72;2.13;;;17.50;42.90;;;;;;5072404;28;20918;-44
2022/09/03 06:20:31;;;;;;;3.78;2.95;;;17.50;43.30;;;;;;5072243;28;20208;-44
2022/09/03 06:22:57;;;;;;;3.40;2.25;;;17.60;43.60;;;;;;5072595;28;20165;-43
2022/09/03 06:25:23;;;;;;;4.18;2.10;;;17.70;43.50;;;;;;5072719;28;20192;-43
2022/09/03 06:27:49;;;;;;;2.90;2.15;;;17.90;43.70;;;;;;5054270;28;20247;-43
2022/09/03 06:30:16;;;;;;;2.88;2.40;;;17.90;43.50;;;;;;5072650;28;20200;-43
2022/09/03 06:32:45;;;;;;;4.93;2.83;;;18.00;43.10;;;;;;5072397;28;20640;-43
2022/09/03 06:35:11;;;;;;;2.42;1.65;;;18.10;42.70;;;;;;5072268;28;20211;-43
2022/09/03 06:37:41;;;;;;;2.40;2.17;;;18.20;42.90;;;;;;5071993;28;20180;-43
2022/09/03 06:40:12;;;;;;;4.60;2.88;;;18.30;43.00;;;;;;5072146;28;20449;-43
2022/09/03 06:42:41;;;;;;;2.53;2.33;;;18.30;42.10;;;;;;5072130;28;20171;-43
2022/09/03 06:45:08;;;;;;;2.65;2.10;;;18.40;41.90;;;;;;5072451;28;20164;-43
2022/09/03 06:47:34;;;;;;;2.30;1.77;;;18.50;41.90;;;;;;5071942;28;20178;-43
2022/09/03 06:50:00;;;;;;;2.85;1.80;;;18.60;42.30;;;;;;5072278;28;20227;-43
2022/09/03 06:52:27;;;;;;;3.13;2.28;;;18.70;42.50;;;;;;5072407;28;20180;-43
2022/09/03 06:54:53;;;;;;;4.55;2.50;;;18.90;42.70;;;;;;5072074;28;20196;-43
2022/09/03 06:57:19;;;;;;;3.53;2.50;;;19.00;42.50;;;;;;5071712;28;20215;-43
2022/09/03 06:59:45;;;;;;;3.37;2.30;;;19.20;42.30;;;;;;5071733;28;20204;-43
2022/09/03 07:02:10;;;;;;;2.30;2.00;;;19.20;41.50;;;;;;5072210;28;20491;-43
2022/09/03 07:04:36;;;;;;;3.13;2.33;;;19.30;40.60;;;;;;5053974;28;20414;-44
2022/09/03 07:07:02;;;;;;;4.87;2.43;;;19.20;40.40;;;;;;5071915;28;20489;-43
2022/09/03 07:09:28;;;;;;;2.20;2.00;;;19.20;39.90;;;;;;5071849;28;20212;-43
2022/09/03 07:11:54;;;;;;;9.77;2.60;;;19.10;39.90;;;;;;5071887;28;20172;-43
2022/09/03 07:14:20;;;;;;;4.40;2.50;;;19.20;40.10;;;;;;5071735;28;20173;-43
2022/09/03 07:16:48;;;;;;;3.83;2.20;;;19.20;40.20;;;;;;5071721;28;20247;-43
2022/09/03 07:19:15;;;;;;;3.00;2.20;;;19.20;40.00;;;;;;5073823;28;20187;-43
2022/09/03 07:21:42;;;;;;;5.88;2.15;;;19.30;40.70;;;;;;5075738;28;20208;-43
2022/09/03 07:24:08;;;;;;;3.03;1.85;;;19.40;40.70;;;;;;5075940;28;20184;-43
2022/09/03 07:26:39;;;;;;;3.35;1.90;;;19.40;39.70;;;;;;5075654;28;20176;-43
2022/09/03 07:29:06;;;;;;;3.05;2.63;;;19.50;39.50;;;;;;5075929;28;20196;-43
2022/09/03 07:31:38;;;;;;;3.78;2.63;;;19.50;39.80;;;;;;5075577;28;20211;-43
2022/09/03 07:34:09;;;;;;;3.97;2.55;;;19.60;39.50;;;;;;5075560;28;20173;-43
2022/09/03 07:36:42;;;;;;;3.00;2.25;;;19.70;39.10;;;;;;5075581;28;20204;-43
2022/09/03 07:39:12;;;;;;;3.92;2.50;;;19.70;39.40;;;;;;5075732;28;20208;-43
2022/09/03 07:41:44;;;;;;;3.75;2.60;;;19.90;40.40;;;;;;5075304;28;20210;-44
2022/09/03 07:44:18;;;;;;;12.20;2.25;;;20.10;39.80;;;;;;5075331;28;20172;-44
2022/09/03 07:46:44;;;;;;;4.07;2.08;;;20.20;39.20;;;;;;5075326;28;20649;-43
2022/09/03 07:49:10;;;;;;;3.97;2.30;;;20.40;40.20;;;;;;5075508;28;20556;-43
2022/09/03 07:51:37;;;;;;;4.07;2.10;;;20.50;40.20;;;;;;5075534;28;20177;-44
2022/09/03 07:54:09;;;;;;;5.05;2.10;;;20.70;40.90;;;;;;5075263;28;20702;-43
2022/09/03 07:56:36;;;;;;;2.85;2.25;;;20.90;39.70;;;;;;5074764;28;20180;-44
2022/09/03 07:59:03;;;;;;;3.95;2.40;;;20.90;38.40;;;;;;5075227;28;20193;-44
2022/09/03 08:01:33;;;;;;;2.47;2.28;;;21.10;39.10;;;;;;5075184;28;20219;-44
2022/09/03 08:03:59;;;;;;;4.07;2.00;;;21.20;39.20;;;;;;5075158;28;20168;-44
2022/09/03 08:06:27;;;;;;;3.63;2.00;;;21.30;39.00;;;;;;5074616;28;20179;-44
2022/09/03 08:09:00;;;;;;;3.33;2.42;;;21.40;38.90;;;;;;5074660;28;20265;-44
2022/09/03 08:11:28;;;;;;;2.45;2.25;;;21.50;37.80;;;;;;5074883;28;20234;-44
2022/09/03 08:14:05;;;;;;;2.60;2.38;;;21.60;38.30;;;;;;5074788;28;20263;-44
2022/09/03 08:16:42;;;;;;;4.35;2.03;;;21.70;38.50;;;;;;5074674;28;20187;-44
2022/09/03 08:19:10;;;;;;;3.08;1.92;;;21.90;38.40;;;;;;5074667;28;20203;-44
2022/09/03 08:21:36;;;;;;;2.35;1.60;;;22.00;38.90;;;;;;5079911;22;20227;-40
2022/09/03 08:24:01;;;;;;;4.20;1.87;;;22.20;38.70;;;;;;5074679;28;20179;-39
2022/09/03 08:26:32;;;;;;;3.03;2.30;;;22.20;37.70;;;;;;5074605;28;20901;-40
2022/09/03 08:28:59;;;;;;;3.63;3.30;;;22.30;36.70;;;;;;5074647;28;20391;-40
2022/09/03 08:31:26;;;;;;;4.33;1.60;;;22.30;36.10;;;;;;5074676;28;20466;-41
2022/09/03 08:33:54;;;;;;;2.93;1.83;;;22.40;35.50;;;;;;5074556;28;20407;-40
2022/09/03 08:36:31;;;;;;;2.80;2.20;;;22.40;35.40;;;;;;5074197;28;20944;-40
2022/09/03 08:39:02;;;;;;;4.32;2.20;;;22.50;35.60;;;;;;5074419;28;20387;-41
2022/09/03 08:41:49;;;;;;;3.10;2.13;;;22.50;34.70;;;;;;5074149;28;20240;-41
2022/09/03 08:44:35;;;;;;;3.53;2.30;;;22.60;34.60;;;;;;5074428;28;20169;-41
2022/09/03 08:47:19;;;;;;;3.17;1.87;;;22.70;34.70;;;;;;5073997;28;20498;-41
2022/09/03 08:50:08;;;;;;;3.20;2.03;;;22.80;35.50;;;;;;5074273;28;20457;-42
2022/09/03 08:52:47;;;;;;;6.63;3.03;;;22.90;35.60;;;;;;5074215;28;20881;-40
2022/09/03 08:55:27;;;;;;;6.37;1.67;;;23.10;35.90;;;;;;5074055;28;20413;-41
2022/09/03 08:58:25;;;;;;;5.57;1.83;;;23.20;34.50;;;;;;5074054;28;20912;-41
2022/09/03 09:01:00;;;;;;;4.23;2.27;;;23.30;34.20;;;;;;5074104;28;20585;-41
2022/09/03 09:03:34;;;;;;;3.13;2.40;;;23.30;33.70;;;;;;5073836;28;20414;-41
2022/09/03 09:06:18;;;;;;;4.73;2.33;;;23.40;34.30;;;;;;5073709;28;20411;-40
2022/09/03 09:09:09;;;;;;;3.60;2.20;;;23.50;34.20;;;;;;5073875;28;20398;-41
2022/09/03 09:12:03;;;;;;;2.83;1.93;;;23.60;33.70;;;;;;5073768;28;20448;-41
2022/09/03 09:15:02;;;;;;;5.43;2.60;;;23.60;28.50;;;;;;5073727;28;20379;-41
2022/09/03 09:17:57;;;;;;;4.57;2.40;;;23.50;31.00;;;;;;5073516;28;20379;-41
2022/09/03 09:20:35;;;;;;;2.43;1.83;;;23.70;32.00;;;;;;5037414;28;20470;-40
2022/09/03 09:23:06;;;;;;;2.87;1.93;;;23.80;31.60;;;;;;5056325;28;20458;-40
2022/09/03 09:25:38;;;;;;;3.13;2.07;;;23.70;29.20;;;;;;5074239;28;20414;-40
2022/09/03 09:28:22;;;;;;;6.03;2.00;;;23.80;30.50;;;;;;5073783;28;20383;-41
2022/09/03 09:30:52;;;;;;;4.20;2.30;;;24.00;30.60;;;;;;5073079;28;20433;-43
2022/09/03 09:33:19;;;;;;;3.10;1.70;;;24.10;31.00;;;;;;5073368;28;20533;-43
2022/09/03 09:35:45;;;;;;;3.10;1.93;;;24.20;30.90;;;;;;5073042;28;20840;-43
2022/09/03 09:38:12;;;;;;;2.33;1.53;;;24.20;30.00;;;;;;5073174;28;20775;-44
2022/09/03 09:40:43;;;;;;;3.43;3.13;;;24.30;29.50;;;;;;5072847;28;20463;-43
2022/09/03 09:43:20;;;;;;;3.60;2.77;;;24.40;30.10;;;;;;5055037;28;20406;-43
2022/09/03 09:45:51;;;;;;;7.30;2.70;;;24.50;30.60;;;;;;5072917;28;20403;-43
2022/09/03 09:48:30;;;;;;;3.53;2.00;;;24.60;30.60;;;;;;5073051;28;20388;-43
2022/09/03 09:51:09;;;;;;;4.33;2.13;;;24.60;28.00;;;;;;5072979;28;20440;-43
2022/09/03 09:53:36;;;;;;;1.97;1.70;;;24.60;28.10;;;;;;5073146;28;20759;-43
2022/09/03 09:56:02;;;;;;;3.50;1.50;;;24.70;29.20;;;;;;5072736;28;20415;-43
2022/09/03 09:58:32;;;;;;;2.90;1.97;;;24.80;29.80;;;;;;5072928;28;20482;-43
2022/09/03 10:01:13;;;;;;;6.90;1.93;;;24.90;30.30;;;;;;5072671;28;20458;-44
2022/09/03 10:04:06;;;;;;;2.40;1.97;;;25.00;30.00;;;;;;5072719;28;20402;-43
2022/09/03 10:09:22;;;;;;;2.77;2.00;;;25.20;30.00;;;;;;5072931;28;20448;-43
2022/09/03 10:12:06;;;;;;;3.57;2.23;;;25.30;29.00;;;;;;5072766;28;20767;-44
2022/09/03 10:14:39;;;;;;;3.83;2.00;;;25.30;28.60;;;;;;5072537;28;20395;-43
2022/09/03 10:17:29;;;;;;;5.30;4.60;;;25.40;29.20;;;;;;5072354;28;20379;-43
2022/09/03 10:20:29;;;;;;;3.00;2.40;;;25.50;28.90;;;;;;5072502;28;20445;-43
2022/09/03 10:23:07;;;;;;;4.33;1.90;;;25.60;28.90;;;;;;5072632;28;20389;-43
2022/09/03 10:25:59;;;;;;;5.43;2.00;;;25.70;28.70;;;;;;5072332;28;20405;-44
2022/09/03 10:28:28;;;;;;;5.23;2.40;;;25.70;28.30;;;;;;5072420;28;20394;-44
2022/09/03 10:31:19;;;;;;;5.10;2.10;;;25.70;27.60;;;;;;5072220;28;20422;-44
2022/09/03 10:34:13;;;;;;;3.13;1.80;;;25.70;25.20;;;;;;5072267;28;21051;-44
2022/09/03 10:37:08;;;;;;;11.50;4.13;;;25.50;25.50;;;;;;5072028;28;20482;-44
2022/09/03 10:40:19;;;;;;;3.47;2.23;;;25.40;25.90;;;;;;5072091;28;20411;-44
2022/09/03 10:43:09;;;;;;;3.00;2.27;;;25.50;26.90;;;;;;4971246;28;20411;-44
2022/09/03 10:46:18;;;;;;;3.57;2.10;;;25.70;27.40;;;;;;5071967;28;20411;-44
2022/09/03 10:48:55;;;;;;;3.10;2.00;;;25.80;27.80;;;;;;5050791;28;20411;-44
2022/09/03 10:51:36;;;;;;;3.30;1.83;;;25.80;26.70;;;;;;5072046;28;20513;-44
2022/09/03 10:54:31;;;;;;;5.73;2.10;;;25.90;27.20;;;;;;5071128;28;20406;-44
2022/09/03 10:57:07;;;;;;;3.10;1.80;;;26.00;26.20;;;;;;5071805;28;20403;-42
2022/09/03 10:59:42;;;;;;;69.57;13.23;;;26.10;25.40;;;;;;5072022;28;20387;-44
2022/09/03 11:02:26;;;;;;;3.50;2.30;;;26.20;25.20;;;;;;5071970;28;20402;-43
2022/09/03 11:05:01;;;;;;;3.27;2.00;;;26.20;24.50;;;;;;5071982;28;20391;-43
2022/09/03 11:07:40;;;;;;;4.20;1.90;;;26.30;26.90;;;;;;5071648;28;20407;-43
2022/09/03 11:10:10;;;;;;;5.30;2.00;;;26.40;25.10;;;;;;5071912;28;20418;-44
2022/09/03 11:12:44;;;;;;;3.30;1.77;;;26.40;25.70;;;;;;5071815;28;20435;-43
2022/09/03 11:15:34;;;;;;;5.90;2.20;;;26.60;25.30;;;;;;5071973;28;20388;-44
2022/09/03 11:18:03;;;;;;;3.30;1.90;;;26.60;23.60;;;;;;5071866;28;20391;-44
2022/09/03 11:20:31;;;;;;;2.83;1.50;;;26.60;23.80;;;;;;5071511;28;20454;-43
2022/09/03 11:23:00;;;;;;;2.40;1.80;;;26.70;25.10;;;;;;5071692;28;20441;-44
2022/09/03 11:25:40;;;;;;;2.17;1.67;;;26.80;25.10;;;;;;5071735;28;20404;-44
2022/09/03 11:28:40;;;;;;;3.40;2.10;;;26.90;23.60;;;;;;5071692;28;20410;-44
2022/09/03 11:31:46;;;;;;;7.80;2.13;;;26.90;23.70;;;;;;4970647;28;20443;-44
2022/09/03 11:34:26;;;;;;;5.03;1.90;;;26.80;24.00;;;;;;4970821;28;20450;-43
2022/09/03 11:37:14;;;;;;;3.83;2.63;;;26.90;25.70;;;;;;4954285;28;20505;-43
2022/09/03 11:39:40;;;;;;;2.83;1.73;;;27.20;26.20;;;;;;4970603;28;20954;-44
2022/09/03 11:42:11;;;;;;;2.77;2.00;;;27.30;26.10;;;;;;4970712;28;20430;-44
2022/09/03 11:44:42;;;;;;;2.43;1.80;;;27.40;25.20;;;;;;4970602;28;20247;-44
2022/09/03 11:47:45;;;;;;;3.57;2.50;;;27.40;24.30;;;;;;4970386;28;20418;-44
2022/09/03 11:50:30;;;;;;;2.87;1.67;;;27.50;25.60;;;;;;4970476;28;20434;-44
2022/09/03 11:53:27;;;;;;;3.53;1.90;;;27.60;22.10;;;;;;4970608;28;20410;-44
2022/09/03 11:56:00;;;;;;;2.50;2.10;;;27.60;23.60;;;;;;4970360;28;20467;-44
2022/09/03 11:58:34;;;;;;;3.07;2.00;;;27.60;24.80;;;;;;4970507;28;20403;-44
2022/09/03 12:01:02;;;;;;;3.63;1.97;;;27.70;23.20;;;;;;4970313;28;20474;-44
2022/09/03 12:03:52;;;;;;;1.97;1.50;;;27.70;24.90;;;;;;4954561;28;20939;-44
2022/09/03 12:06:26;;;;;;;3.10;2.30;;;27.80;25.00;;;;;;4973692;28;20491;-44
2022/09/03 12:09:23;;;;;;;3.43;1.67;;;27.90;24.50;;;;;;5064302;28;20418;-44
2022/09/03 12:12:16;;;;;;;3.00;1.70;;;27.90;22.80;;;;;;5074881;28;20419;-44
2022/09/03 12:15:05;;;;;;;1.93;1.70;;;27.90;22.70;;;;;;5074878;28;20391;-43
2022/09/03 12:20:42;;;;;;;2.70;1.87;;;28.00;24.10;;;;;;5074524;28;20604;-44
2022/09/03 12:23:13;;;;;;;2.57;2.10;;;28.00;25.00;;;;;;5074721;28;20399;-44
2022/09/03 12:25:46;;;;;;;2.30;1.63;;;28.20;25.30;;;;;;5074387;28;20395;-44
2022/09/03 12:28:18;;;;;;;3.47;1.87;;;28.30;24.90;;;;;;5074910;28;20452;-44
2022/09/03 12:30:45;;;;;;;3.20;1.77;;;28.40;25.60;;;;;;5074516;28;20945;-44
2022/09/03 12:33:17;;;;;;;2.43;1.87;;;28.50;25.60;;;;;;5074483;28;20415;-44
2022/09/03 12:35:42;;;;;;;2.60;2.40;;;28.50;23.00;;;;;;5074276;28;20487;-44
2022/09/03 12:38:11;;;;;;;2.57;2.23;;;28.60;23.90;;;;;;5074338;28;20490;-44
2022/09/03 12:40:42;;;;;;;2.70;1.80;;;28.60;24.10;;;;;;5074304;28;20458;-44
2022/09/03 12:43:16;;;;;;;2.53;1.77;;;28.60;24.30;;;;;;5074398;28;20490;-44
2022/09/03 12:45:47;;;;;;;2.00;1.60;;;28.50;23.40;;;;;;5056254;28;20407;-44
2022/09/03 12:48:15;;;;;;;4.27;1.93;;;28.40;23.90;;;;;;5056691;28;20914;-44
2022/09/03 12:50:43;;;;;;;5.03;1.90;;;28.20;24.00;;;;;;5074097;28;20429;-44
2022/09/03 12:53:13;;;;;;;5.87;3.30;;;28.00;23.00;;;;;;5074237;28;20766;-42
2022/09/03 12:55:58;;;;;;;4.67;2.60;;;28.00;23.00;;;;;;5073940;28;20962;-42
2022/09/03 12:58:38;;;;;;;3.13;1.97;;;28.00;22.70;;;;;;5074137;28;20417;-42
2022/09/03 13:01:20;;;;;;;3.23;2.00;;;28.10;23.10;;;;;;5073825;28;20457;-42
2022/09/03 13:03:53;;;;;;;2.90;1.90;;;28.10;23.00;;;;;;5073993;28;20419;-41
2022/09/03 13:06:27;;;;;;;3.03;1.80;;;28.10;23.30;;;;;;5073766;28;20394;-42
2022/09/03 13:09:07;;;;;;;2.20;2.00;;;28.10;21.60;;;;;;5073914;28;20490;-42
2022/09/03 13:11:37;;;;;;;2.60;2.00;;;28.10;24.00;;;;;;5073695;28;20431;-42
2022/09/03 13:14:09;;;;;;;2.37;1.80;;;28.20;25.00;;;;;;5073712;28;20913;-42
2022/09/03 13:16:44;;;;;;;2.57;1.77;;;28.20;22.00;;;;;;5072932;28;20817;-42
2022/09/03 13:19:30;;;;;;;3.80;2.20;;;28.30;24.50;;;;;;5073666;28;20406;-41
2022/09/03 13:22:34;;;;;;;2.90;1.77;;;28.40;24.20;;;;;;5073397;28;20478;-42
2022/09/03 13:25:00;;;;;;;2.30;1.80;;;28.60;23.50;;;;;;5073838;28;20415;-42
2022/09/03 13:27:45;;;;;;;6.87;5.87;;;28.50;24.10;;;;;;5073547;28;20438;-40
2022/09/03 13:30:18;;;;;;;2.70;1.70;;;28.30;24.00;;;;;;5073307;28;20426;-42